createdAt,value
2019-02-04T00:01:53.369Z,10.27
2019-02-04T00:04:23.901Z,11.53
2019-02-04T00:06:54.371Z,14.33
2019-02-04T00:09:24.809Z,13.23
2019-02-04T00:11:56.322Z,12.63
2019-02-04T00:14:26.784Z,13.93
2019-02-04T00:16:57.224Z,10.50
2019-02-04T00:19:27.695Z,11.27
2019-02-04T00:21:58.154Z,10.00
2019-02-04T00:24:29.348Z,11.80
2019-02-04T00:26:59.783Z,13.03
2019-02-04T00:29:30.550Z,11.10
2019-02-04T00:32:01.031Z,17.03
2019-02-04T00:34:31.784Z,11.43
2019-02-04T00:37:02.258Z,12.17
2019-02-04T00:39:33.063Z,12.40
2019-02-04T00:42:03.893Z,13.27
2019-02-04T00:44:34.359Z,11.33
2019-02-04T00:47:05.093Z,15.83
2019-02-04T00:49:35.897Z,10.50
2019-02-04T00:52:06.437Z,11.33
2019-02-04T00:54:36.875Z,9.57
2019-02-04T00:57:07.701Z,22.17
2019-02-04T00:59:38.148Z,10.70
2019-02-04T01:02:08.725Z,10.70
2019-02-04T01:04:39.451Z,13.23
2019-02-04T01:07:10.072Z,11.20
2019-02-04T01:09:40.544Z,16.63
2019-02-04T01:12:10.985Z,15.97
2019-02-04T01:14:41.513Z,9.63
2019-02-04T01:17:12.335Z,14.67
2019-02-04T01:19:43.103Z,12.70
2019-02-04T01:22:13.575Z,11.97
2019-02-04T01:24:48.095Z,10.63
2019-02-04T01:27:17.682Z,13.83
2019-02-04T01:29:48.590Z,11.43
2019-02-04T01:32:19.026Z,14.60
2019-02-04T01:34:49.807Z,14.17
2019-02-04T01:37:20.248Z,11.13
2019-02-04T01:39:50.741Z,14.70
2019-02-04T01:42:21.675Z,11.23
2019-02-04T01:44:52.115Z,12.77
2019-02-04T01:47:23.562Z,14.13
2019-02-04T01:49:54.007Z,14.17
2019-02-04T01:52:24.498Z,9.70
2019-02-04T01:54:55.317Z,13.77
2019-02-04T01:57:25.763Z,14.00
2019-02-04T01:59:56.247Z,12.17
2019-02-04T02:02:26.693Z,10.67
2019-02-04T02:04:57.178Z,12.77
2019-02-04T02:07:27.623Z,13.23
2019-02-04T02:09:58.079Z,12.90
2019-02-04T02:12:28.905Z,9.20
2019-02-04T02:15:00.288Z,13.07
2019-02-04T02:17:30.790Z,11.90
2019-02-04T02:20:01.234Z,12.77
2019-02-04T02:22:32.443Z,17.23
2019-02-04T02:25:02.912Z,11.83
2019-02-04T02:27:33.625Z,16.30
2019-02-04T02:30:05.471Z,12.93
2019-02-04T02:32:35.959Z,11.67
2019-02-04T02:35:07.608Z,17.90
2019-02-04T02:37:38.205Z,12.40
2019-02-04T02:40:12.798Z,11.00
2019-02-04T02:42:43.288Z,11.13
2019-02-04T02:45:13.728Z,16.30
2019-02-04T02:47:44.171Z,16.00
2019-02-04T02:50:14.970Z,16.73
2019-02-04T02:52:45.565Z,12.60
2019-02-04T02:55:16.621Z,15.07
2019-02-04T02:57:47.265Z,15.63
2019-02-04T03:00:20.750Z,12.70
2019-02-04T03:02:52.012Z,15.00
2019-02-04T03:05:22.533Z,20.23
2019-02-04T03:07:53.682Z,17.47
2019-02-04T03:10:28.820Z,12.10
2019-02-04T03:12:59.306Z,13.77
2019-02-04T03:15:31.415Z,12.83
2019-02-04T03:18:01.854Z,11.47
2019-02-04T03:20:33.525Z,12.43
2019-02-04T03:23:04.558Z,12.93
2019-02-04T03:25:35.048Z,17.63
2019-02-04T03:28:05.591Z,16.73
2019-02-04T03:30:36.074Z,15.43
2019-02-04T03:33:06.544Z,16.90
2019-02-04T03:35:36.982Z,14.63
2019-02-04T03:38:07.482Z,18.97
2019-02-04T03:40:37.933Z,20.63
2019-02-04T03:43:08.382Z,17.73
2019-02-04T03:45:39.016Z,17.53
2019-02-04T03:48:09.804Z,16.93
2019-02-04T03:50:40.240Z,17.47
2019-02-04T03:53:10.688Z,15.47
2019-02-04T03:55:41.180Z,21.63
2019-02-04T03:58:11.632Z,18.73
2019-02-04T04:00:42.088Z,15.40
2019-02-04T04:03:13.707Z,13.87
2019-02-04T04:05:44.155Z,16.50
2019-02-04T04:08:14.644Z,15.23
2019-02-04T04:10:45.092Z,18.83
2019-02-04T04:13:15.539Z,15.53
2019-02-04T04:15:46.442Z,24.77
2019-02-04T04:18:16.883Z,20.57
2019-02-04T04:20:47.333Z,18.73
2019-02-04T04:23:17.821Z,25.07
2019-02-04T04:25:48.272Z,21.57
2019-02-04T04:28:18.768Z,23.20
2019-02-04T04:30:49.276Z,26.37
2019-02-04T04:33:19.725Z,30.60
2019-02-04T04:35:50.495Z,25.03
2019-02-04T04:38:20.985Z,23.53
2019-02-04T04:40:51.436Z,21.80
2019-02-04T04:43:21.882Z,34.43
2019-02-04T04:45:52.389Z,22.77
2019-02-04T04:48:26.768Z,30.60
2019-02-04T04:50:54.984Z,22.63
2019-02-04T04:53:25.479Z,20.67
2019-02-04T04:55:55.927Z,20.77
2019-02-04T04:58:26.392Z,22.30
2019-02-04T05:00:56.898Z,23.47
2019-02-04T05:03:27.350Z,25.30
2019-02-04T05:05:58.111Z,22.20
2019-02-04T05:08:28.995Z,27.53
2019-02-04T05:10:59.448Z,22.07
2019-02-04T05:13:30.052Z,19.83
2019-02-04T05:16:00.829Z,23.07
2019-02-04T05:18:38.121Z,21.73
2019-02-04T05:21:03.907Z,25.47
2019-02-04T05:23:34.414Z,22.80
2019-02-04T05:26:04.964Z,20.63
2019-02-04T05:28:35.420Z,20.93
2019-02-04T05:31:06.072Z,19.83
2019-02-04T05:33:37.277Z,21.67
2019-02-04T05:36:07.723Z,26.17
2019-02-04T05:38:38.220Z,22.07
2019-02-04T05:41:08.665Z,21.43
2019-02-04T05:43:39.402Z,22.10
2019-02-04T05:46:09.898Z,23.77
2019-02-04T05:48:49.109Z,22.10
2019-02-04T05:51:13.218Z,22.40
2019-02-04T05:53:43.778Z,24.13
2019-02-04T05:56:14.228Z,20.23
2019-02-04T05:58:44.749Z,24.00
2019-02-04T06:01:15.243Z,22.83
2019-02-04T06:03:45.688Z,30.50
2019-02-04T06:06:16.141Z,26.93
2019-02-04T06:08:46.641Z,20.80
2019-02-04T06:11:17.180Z,21.83
2019-02-04T06:13:47.970Z,19.20
2019-02-04T06:16:18.888Z,28.20
2019-02-04T06:19:00.123Z,25.03
2019-02-04T06:21:21.487Z,20.33
2019-02-04T06:23:52.009Z,22.40
2019-02-04T06:26:23.427Z,26.97
2019-02-04T06:28:53.904Z,24.30
2019-02-04T06:31:24.396Z,24.60
2019-02-04T06:33:54.845Z,27.17
2019-02-04T06:36:25.762Z,23.03
2019-02-04T06:38:57.010Z,28.43
2019-02-04T06:41:27.524Z,24.90
2019-02-04T06:43:58.041Z,25.87
2019-02-04T06:46:29.271Z,24.37
2019-02-04T06:48:59.751Z,25.23
2019-02-04T06:51:30.422Z,24.73
2019-02-04T06:54:01.212Z,24.90
2019-02-04T06:56:31.963Z,25.13
2019-02-04T06:59:02.435Z,27.30
2019-02-04T07:01:32.913Z,26.67
2019-02-04T07:04:03.365Z,26.73
2019-02-04T07:06:35.115Z,24.70
2019-02-04T07:09:09.829Z,25.80
2019-02-04T07:11:40.347Z,31.80
2019-02-04T07:14:10.789Z,27.77
2019-02-04T07:16:41.307Z,24.50
2019-02-04T07:19:23.486Z,24.07
2019-02-04T07:21:43.894Z,23.13
2019-02-04T07:24:14.451Z,24.17
2019-02-04T07:26:44.908Z,22.70
2019-02-04T07:29:15.348Z,26.30
2019-02-04T07:31:46.120Z,24.63
2019-02-04T07:34:16.577Z,24.43
2019-02-04T07:36:47.093Z,27.37
2019-02-04T07:39:17.583Z,25.00
2019-02-04T07:41:48.135Z,22.53
2019-02-04T07:44:18.647Z,23.47
2019-02-04T07:46:49.529Z,25.27
2019-02-04T07:49:19.951Z,30.53
2019-02-04T07:51:50.577Z,26.13
2019-02-04T07:54:21.671Z,22.27
2019-02-04T07:56:52.110Z,31.30
2019-02-04T07:59:22.579Z,24.43
2019-02-04T08:01:53.370Z,24.17
2019-02-04T08:04:23.986Z,30.87
2019-02-04T08:06:54.433Z,22.63
2019-02-04T08:09:24.939Z,21.80
2019-02-04T08:11:55.755Z,22.17
2019-02-04T08:14:26.490Z,23.00
2019-02-04T08:16:57.421Z,23.40
2019-02-04T08:19:27.903Z,24.33
2019-02-04T08:21:58.750Z,22.83
2019-02-04T08:24:29.744Z,22.83
2019-02-04T08:27:00.159Z,20.00
2019-02-04T08:29:30.963Z,21.17
2019-02-04T08:32:01.479Z,20.70
2019-02-04T08:34:31.959Z,21.30
2019-02-04T08:37:03.467Z,20.43
2019-02-04T08:39:33.972Z,22.33
2019-02-04T08:42:04.514Z,19.67
2019-02-04T08:44:34.963Z,20.03
2019-02-04T08:47:05.490Z,20.67
2019-02-04T08:49:35.937Z,22.50
2019-02-04T08:52:06.766Z,20.83
2019-02-04T08:54:37.255Z,19.67
2019-02-04T08:57:07.700Z,20.60
2019-02-04T08:59:38.507Z,27.07
2019-02-04T09:02:09.409Z,18.67
2019-02-04T09:04:39.877Z,22.73
2019-02-04T09:07:10.595Z,23.13
2019-02-04T09:09:41.078Z,20.90
2019-02-04T09:12:11.693Z,19.57
2019-02-04T09:14:42.139Z,22.60
2019-02-04T09:17:12.653Z,21.07
2019-02-04T09:19:43.090Z,24.93
2019-02-04T09:22:13.534Z,23.73
2019-02-04T09:24:44.023Z,20.70
2019-02-04T09:27:14.462Z,20.50
2019-02-04T09:29:44.910Z,20.93
2019-02-04T09:32:15.399Z,18.17
2019-02-04T09:34:46.586Z,20.83
2019-02-04T09:37:17.030Z,23.20
2019-02-04T09:39:47.516Z,19.20
2019-02-04T09:42:18.337Z,18.37
2019-02-04T09:44:49.120Z,19.73
2019-02-04T09:47:19.910Z,21.43
2019-02-04T09:49:51.253Z,18.87
2019-02-04T09:52:21.699Z,18.50
2019-02-04T09:54:52.192Z,19.83
2019-02-04T09:57:22.635Z,20.50
2019-02-04T09:59:53.168Z,22.80
2019-02-04T10:02:23.949Z,21.00
2019-02-04T10:04:54.398Z,20.30
2019-02-04T10:07:24.855Z,24.77
2019-02-04T10:09:55.326Z,22.63
2019-02-04T10:12:25.770Z,20.70
2019-02-04T10:14:57.031Z,22.03
2019-02-04T10:17:27.511Z,20.97
2019-02-04T10:19:57.954Z,24.07
2019-02-04T10:22:28.835Z,21.47
2019-02-04T10:24:59.323Z,23.03
2019-02-04T10:27:30.108Z,22.63
2019-02-04T10:30:00.920Z,23.50
2019-02-04T10:32:31.988Z,21.10
2019-02-04T10:35:02.709Z,23.07
2019-02-04T10:37:33.296Z,23.70
2019-02-04T10:40:04.057Z,24.40
2019-02-04T10:42:34.529Z,25.97
2019-02-04T10:45:05.629Z,25.13
2019-02-04T10:47:36.471Z,24.70
2019-02-04T10:50:09.991Z,21.20
2019-02-04T10:52:40.568Z,23.40
2019-02-04T10:55:12.175Z,27.37
2019-02-04T10:57:42.717Z,23.47
2019-02-04T11:00:15.814Z,22.13
2019-02-04T11:02:46.658Z,23.87
2019-02-04T11:05:20.363Z,23.27
2019-02-04T11:07:50.991Z,25.00
2019-02-04T11:10:23.568Z,24.47
2019-02-04T11:12:54.453Z,24.00
2019-02-04T11:15:25.827Z,24.67
2019-02-04T11:17:56.537Z,24.63
2019-02-04T11:20:28.362Z,26.67
2019-02-04T11:22:59.196Z,23.50
2019-02-04T11:25:29.600Z,24.00
2019-02-04T11:28:00.127Z,22.53
2019-02-04T11:30:51.335Z,24.43
2019-02-04T11:33:22.043Z,25.17
2019-02-04T11:35:52.985Z,23.13
2019-02-04T11:38:23.506Z,22.97
2019-02-04T11:40:54.433Z,24.27
2019-02-04T11:43:25.084Z,23.13
2019-02-04T11:45:55.741Z,24.07
2019-02-04T11:48:26.322Z,23.33
2019-02-04T11:50:56.791Z,22.13
2019-02-04T11:53:33.027Z,22.33
2019-02-04T11:55:59.427Z,21.67
2019-02-04T11:58:30.146Z,23.53
2019-02-04T12:01:00.668Z,22.47
2019-02-04T12:03:31.117Z,20.77
2019-02-04T12:06:01.567Z,22.07
2019-02-04T12:08:33.042Z,20.33
2019-02-04T12:11:13.274Z,19.47
2019-02-04T12:13:44.771Z,21.13
2019-02-04T12:16:15.242Z,19.17
2019-02-04T12:18:46.370Z,19.93
2019-02-04T12:21:21.459Z,20.97
2019-02-04T12:23:49.886Z,13.43
2019-02-04T12:26:20.365Z,23.53
2019-02-04T12:28:50.851Z,21.27
2019-02-04T12:31:21.771Z,19.43
2019-02-04T12:33:52.379Z,19.17
2019-02-04T12:36:23.183Z,20.97
2019-02-04T12:38:53.625Z,19.90
2019-02-04T12:41:24.067Z,18.13
2019-02-04T12:43:54.711Z,20.53
2019-02-04T12:46:25.154Z,19.70
2019-02-04T12:48:55.939Z,19.00
2019-02-04T12:51:33.738Z,19.20
2019-02-04T12:53:59.051Z,19.77
2019-02-04T12:56:29.505Z,25.07
2019-02-04T12:59:00.356Z,18.77
2019-02-04T13:01:30.810Z,19.40
2019-02-04T13:04:01.255Z,20.40
2019-02-04T13:06:32.679Z,17.50
2019-02-04T13:09:03.312Z,21.97
2019-02-04T13:11:34.514Z,13.67
2019-02-04T13:14:05.693Z,19.67
2019-02-04T13:16:36.474Z,15.17
2019-02-04T13:19:06.919Z,18.77
2019-02-04T13:21:45.206Z,14.87
2019-02-04T13:24:09.929Z,16.00
2019-02-04T13:26:40.381Z,15.40
2019-02-04T13:29:10.886Z,20.73
2019-02-04T13:31:41.336Z,15.97
2019-02-04T13:34:11.877Z,15.47
2019-02-04T13:36:42.366Z,12.90
2019-02-04T13:39:12.815Z,21.87
2019-02-04T13:41:43.258Z,11.67
2019-02-04T13:44:13.749Z,13.60
2019-02-04T13:46:44.192Z,14.50
2019-02-04T13:49:14.628Z,16.73
2019-02-04T13:51:56.850Z,14.90
2019-02-04T13:54:17.659Z,13.87
2019-02-04T13:56:48.096Z,14.00
2019-02-04T13:59:18.576Z,13.03
2019-02-04T14:01:49.385Z,14.70
2019-02-04T14:04:19.829Z,15.30
2019-02-04T14:06:50.622Z,12.20
2019-02-04T14:09:21.450Z,15.47
2019-02-04T14:11:51.899Z,13.27
2019-02-04T14:14:22.363Z,12.10
2019-02-04T14:16:53.040Z,16.10
2019-02-04T14:19:23.527Z,11.63
2019-02-04T14:21:53.964Z,11.17
2019-02-04T14:24:24.403Z,12.40
2019-02-04T14:26:55.171Z,14.17
2019-02-04T14:29:26.004Z,14.50
2019-02-04T14:31:56.867Z,12.07
2019-02-04T14:34:27.301Z,10.73
2019-02-04T14:36:57.746Z,14.43
2019-02-04T14:39:29.213Z,14.97
2019-02-04T14:42:00.716Z,15.27
2019-02-04T14:44:42.755Z,11.30
2019-02-04T14:47:36.837Z,13.53
2019-02-04T14:50:27.455Z,11.93
2019-02-04T14:53:50.821Z,10.63
2019-02-04T14:56:58.002Z,12.20
2019-02-04T14:59:49.952Z,10.17
2019-02-04T15:02:50.478Z,11.73
2019-02-04T15:06:06.602Z,15.47
2019-02-04T15:09:27.274Z,12.13
2019-02-04T15:12:39.965Z,8.87
2019-02-04T15:15:25.031Z,10.77
2019-02-04T15:18:16.079Z,11.37
2019-02-04T15:21:39.120Z,12.27
2019-02-04T15:24:17.255Z,9.93
2019-02-04T15:27:13.474Z,10.60
2019-02-04T15:30:14.353Z,11.10
2019-02-04T15:33:22.852Z,10.93
2019-02-04T15:36:17.823Z,9.03
2019-02-04T15:39:19.173Z,9.13
2019-02-04T15:42:32.286Z,8.37
2019-02-04T15:45:29.625Z,8.00
2019-02-04T15:48:20.160Z,9.97
2019-02-04T15:51:08.676Z,10.37
2019-02-04T15:53:39.119Z,10.07
2019-02-04T15:56:10.227Z,9.57
2019-02-04T15:58:40.684Z,9.23
2019-02-04T16:01:11.123Z,11.33
2019-02-04T16:03:41.606Z,8.77
2019-02-04T16:06:12.063Z,10.00
2019-02-04T16:08:42.590Z,11.00
2019-02-04T16:11:13.438Z,10.00
2019-02-04T16:13:43.998Z,10.43
2019-02-04T16:16:14.434Z,12.60
2019-02-04T16:18:44.895Z,9.40
2019-02-04T16:21:15.329Z,10.77
2019-02-04T16:23:46.085Z,8.70
2019-02-04T16:26:16.521Z,15.27
2019-02-04T16:28:46.992Z,9.73
2019-02-04T16:31:17.452Z,13.33
2019-02-04T16:33:47.909Z,12.77
2019-02-04T16:36:18.346Z,10.27
2019-02-04T16:38:49.104Z,11.10
2019-02-04T16:41:20.272Z,10.53
2019-02-04T16:43:50.722Z,9.10
2019-02-04T16:46:21.530Z,13.17
2019-02-04T16:48:51.991Z,11.50
2019-02-04T16:51:22.613Z,12.83
2019-02-04T16:53:53.109Z,15.13
2019-02-04T16:56:23.546Z,11.43
2019-02-04T16:58:53.997Z,10.47
2019-02-04T17:01:24.834Z,12.97
2019-02-04T17:03:55.979Z,11.97
2019-02-04T17:06:26.432Z,10.77
2019-02-04T17:08:56.929Z,14.00
2019-02-04T17:11:28.562Z,12.17
2019-02-04T17:13:58.989Z,14.47
2019-02-04T17:16:29.866Z,14.40
2019-02-04T17:19:00.345Z,13.17
2019-02-04T17:21:30.873Z,15.63
2019-02-04T17:24:01.664Z,11.77
2019-02-04T17:26:32.096Z,15.13
2019-02-04T17:29:03.532Z,13.80
2019-02-04T17:31:35.499Z,14.53
2019-02-04T17:34:06.113Z,12.63
2019-02-04T17:36:37.335Z,11.23
2019-02-04T17:39:09.353Z,10.73
2019-02-04T17:41:39.901Z,14.57
2019-02-04T17:44:10.547Z,12.77
2019-02-04T17:46:41.782Z,12.43
2019-02-04T17:49:12.217Z,11.03
2019-02-04T17:51:43.048Z,10.30
2019-02-04T17:54:13.531Z,8.83
2019-02-04T17:56:44.361Z,11.57
2019-02-04T17:59:14.838Z,11.47
2019-02-04T18:01:45.611Z,10.53
2019-02-04T18:04:16.375Z,11.70
2019-02-04T18:06:46.814Z,9.93
2019-02-04T18:09:17.301Z,9.40
2019-02-04T18:11:47.812Z,9.37
2019-02-04T18:14:18.270Z,12.13
2019-02-04T18:16:48.765Z,9.50
2019-02-04T18:19:19.214Z,11.27
2019-02-04T18:21:49.641Z,9.83
2019-02-04T18:24:20.706Z,11.97
2019-02-04T18:26:51.262Z,11.67
2019-02-04T18:29:21.692Z,12.60
2019-02-04T18:31:52.475Z,8.60
2019-02-04T18:34:22.907Z,9.97
2019-02-04T18:36:53.749Z,10.70
2019-02-04T18:39:24.233Z,12.03
2019-02-04T18:41:55.675Z,12.03
2019-02-04T18:44:26.204Z,10.10
2019-02-04T18:46:56.990Z,10.90
2019-02-04T18:49:27.439Z,11.47
2019-02-04T18:51:57.891Z,9.77
2019-02-04T18:54:28.681Z,10.73
2019-02-04T18:56:59.140Z,10.57
2019-02-04T18:59:29.572Z,8.87
2019-02-04T19:02:00.324Z,10.20
2019-02-04T19:04:32.784Z,9.10
2019-02-04T19:07:03.396Z,12.97
2019-02-04T19:09:34.846Z,10.67
2019-02-04T19:12:05.425Z,12.27
2019-02-04T19:14:37.418Z,14.43
2019-02-04T19:17:07.905Z,11.77
2019-02-04T19:19:39.037Z,13.57
2019-02-04T19:22:10.718Z,13.53
2019-02-04T19:24:42.184Z,11.63
2019-02-04T19:27:14.238Z,12.00
2019-02-04T19:29:45.047Z,12.30
2019-02-04T19:32:16.550Z,14.43
2019-02-04T19:34:46.994Z,14.73
2019-02-04T19:37:19.257Z,16.17
2019-02-04T19:39:49.926Z,12.33
2019-02-04T19:42:20.901Z,13.93
2019-02-04T19:44:54.177Z,14.57
2019-02-04T19:47:24.983Z,12.13
2019-02-04T19:49:55.793Z,14.57
2019-02-04T19:52:26.891Z,12.67
2019-02-04T19:54:57.326Z,15.40
2019-02-04T19:57:28.033Z,16.03
2019-02-04T19:59:58.542Z,11.87
2019-02-04T20:02:29.343Z,11.70
2019-02-04T20:05:00.374Z,12.83
2019-02-04T20:07:32.657Z,13.47
2019-02-04T20:10:06.415Z,15.10
2019-02-04T20:12:37.198Z,13.67
2019-02-04T20:15:10.539Z,14.07
2019-02-04T20:17:41.307Z,16.27
2019-02-04T20:20:11.972Z,12.20
2019-02-04T20:22:44.139Z,15.60
2019-02-04T20:25:17.391Z,13.80
2019-02-04T20:27:47.859Z,12.83
2019-02-04T20:30:21.366Z,13.43
2019-02-04T20:32:51.899Z,15.50
2019-02-04T20:35:22.326Z,13.37
2019-02-04T20:37:53.165Z,13.03
2019-02-04T20:40:23.655Z,13.00
2019-02-04T20:42:54.090Z,15.67
2019-02-04T20:45:25.345Z,13.23
2019-02-04T20:47:55.829Z,12.70
2019-02-04T20:50:28.790Z,11.13
2019-02-04T20:52:59.454Z,11.30
2019-02-04T20:55:30.200Z,13.17
2019-02-04T20:58:01.302Z,11.43
2019-02-04T21:00:31.886Z,12.10
2019-02-04T21:03:02.469Z,14.13
2019-02-04T21:05:32.968Z,13.47
2019-02-04T21:08:03.446Z,12.60
2019-02-04T21:10:33.911Z,12.47
2019-02-04T21:13:04.810Z,12.80
2019-02-04T21:15:35.580Z,11.97
2019-02-04T21:18:06.898Z,12.53
2019-02-04T21:20:37.444Z,11.37
2019-02-04T21:23:07.891Z,12.53
2019-02-04T21:25:38.546Z,12.63
2019-02-04T21:28:09.044Z,11.13
2019-02-04T21:30:41.804Z,9.67
2019-02-04T21:33:12.274Z,11.33
2019-02-04T21:35:43.525Z,12.57
2019-02-04T21:38:14.422Z,13.43
2019-02-04T21:40:44.933Z,11.93
2019-02-04T21:43:15.527Z,12.03
2019-02-04T21:45:45.951Z,11.97
2019-02-04T21:48:16.890Z,10.17
2019-02-04T21:50:47.779Z,10.23
2019-02-04T21:53:19.413Z,12.87
2019-02-04T21:55:51.063Z,12.13
2019-02-04T21:58:21.851Z,8.57
2019-02-04T22:00:52.320Z,12.00
2019-02-04T22:03:23.126Z,14.90
2019-02-04T22:05:53.608Z,12.20
2019-02-04T22:08:24.046Z,13.80
2019-02-04T22:10:54.874Z,11.77
2019-02-04T22:13:25.332Z,9.60
2019-02-04T22:15:55.836Z,8.47
2019-02-04T22:18:26.627Z,10.20
2019-02-04T22:20:57.315Z,9.23
2019-02-04T22:23:27.751Z,10.40
2019-02-04T22:25:58.938Z,10.83
2019-02-04T22:28:29.378Z,10.93
2019-02-04T22:31:00.241Z,8.80
2019-02-04T22:33:31.367Z,10.43
2019-02-04T22:36:01.807Z,11.67
2019-02-04T22:38:32.261Z,11.63
2019-02-04T22:41:03.594Z,8.77
2019-02-04T22:43:34.072Z,11.80
2019-02-04T22:46:05.084Z,9.00
2019-02-04T22:48:35.786Z,9.83
2019-02-04T22:51:06.346Z,10.57
2019-02-04T22:53:36.779Z,9.50
2019-02-04T22:56:07.276Z,8.47
2019-02-04T22:58:38.104Z,9.53
2019-02-04T23:01:22.361Z,8.27
2019-02-04T23:03:53.184Z,9.57
2019-02-04T23:06:23.711Z,9.73
2019-02-04T23:08:54.664Z,9.07
2019-02-04T23:11:25.092Z,12.40
2019-02-04T23:13:55.573Z,10.67
2019-02-04T23:16:26.014Z,8.93
2019-02-04T23:18:56.475Z,12.63
2019-02-04T23:21:26.937Z,9.77
2019-02-04T23:23:57.656Z,10.47
2019-02-04T23:26:28.153Z,11.07
2019-02-04T23:29:00.284Z,15.10
2019-02-04T23:31:30.713Z,9.63
2019-02-04T23:34:01.174Z,8.10
2019-02-04T23:36:31.981Z,8.77
2019-02-04T23:39:03.708Z,9.90
2019-02-04T23:41:34.141Z,13.80
2019-02-04T23:44:05.121Z,11.30
2019-02-04T23:46:35.576Z,9.23
2019-02-04T23:49:06.421Z,11.47
2019-02-04T23:51:37.312Z,9.00
2019-02-04T23:54:08.204Z,9.03
2019-02-04T23:56:38.634Z,9.93
2019-02-04T23:59:09.092Z,14.13
